createdAt,value
2022-10-29T00:03:00.220Z,99745.00
2022-10-29T00:06:06.688Z,99745.47
2022-10-29T00:09:09.977Z,99748.81
2022-10-29T00:12:11.704Z,99751.47
2022-10-29T00:15:13.508Z,99754.06
2022-10-29T00:18:15.361Z,99741.47
2022-10-29T00:21:19.718Z,99745.75
2022-10-29T00:24:21.336Z,99745.44
2022-10-29T00:27:23.000Z,99728.44
2022-10-29T00:30:24.698Z,99731.22
2022-10-29T00:33:26.415Z,99726.03
2022-10-29T00:36:29.984Z,99738.03
2022-10-29T00:39:33.528Z,99743.81
2022-10-29T00:42:35.142Z,99744.31
2022-10-29T00:45:36.924Z,99765.50
2022-10-29T00:48:51.272Z,99763.13
2022-10-29T00:51:53.443Z,99749.44
2022-10-29T00:54:56.373Z,99754.25
2022-10-29T00:57:58.870Z,99749.47
2022-10-29T01:01:01.525Z,99749.19
2022-10-29T01:04:04.598Z,99759.56
2022-10-29T01:07:06.468Z,99759.66
2022-10-29T01:10:09.362Z,99756.06
2022-10-29T01:13:14.031Z,99755.63
2022-10-29T01:16:41.070Z,99748.91
2022-10-29T01:19:45.635Z,99749.06
2022-10-29T01:23:06.616Z,99753.84
2022-10-29T01:26:44.193Z,99761.66
2022-10-29T01:30:05.090Z,99764.81
2022-10-29T01:33:17.032Z,99762.44
2022-10-29T01:36:27.578Z,99762.44
2022-10-29T01:39:37.837Z,99757.78
2022-10-29T01:42:46.046Z,99744.06
2022-10-29T01:46:11.412Z,99743.63
2022-10-29T01:49:20.990Z,99737.84
2022-10-29T01:52:25.523Z,99735.19
2022-10-29T01:55:35.445Z,99729.53
2022-10-29T01:58:38.333Z,99728.63
2022-10-29T02:02:05.560Z,99721.72
2022-10-29T02:05:10.330Z,99721.25
2022-10-29T02:08:21.037Z,99718.19
2022-10-29T02:11:58.230Z,99719.00
2022-10-29T02:15:24.188Z,99714.38
2022-10-29T02:18:26.063Z,99700.63
2022-10-29T02:21:27.835Z,99702.91
2022-10-29T02:24:29.555Z,99692.13
2022-10-29T02:27:31.358Z,99692.94
2022-10-29T02:30:33.384Z,99697.72
2022-10-29T02:33:35.291Z,99682.84
2022-10-29T02:36:37.099Z,99682.31
2022-10-29T02:39:38.781Z,99680.03
2022-10-29T02:42:40.586Z,99677.31
2022-10-29T02:45:42.310Z,99674.72
2022-10-29T02:48:44.362Z,99678.75
2022-10-29T02:51:46.040Z,99674.00
2022-10-29T02:54:47.743Z,99670.25
2022-10-29T02:57:49.688Z,99658.28
2022-10-29T03:00:51.839Z,99653.88
2022-10-29T03:03:53.678Z,99654.19
2022-10-29T03:06:55.382Z,99644.19
2022-10-29T03:09:57.091Z,99623.66
2022-10-29T03:12:59.635Z,99625.53
2022-10-29T03:16:01.416Z,99621.91
2022-10-29T03:19:03.426Z,99628.34
2022-10-29T03:22:05.071Z,99636.56
2022-10-29T03:25:07.171Z,99623.13
2022-10-29T03:28:08.854Z,99642.06
2022-10-29T03:31:10.632Z,99630.88
2022-10-29T03:34:12.374Z,99640.28
2022-10-29T03:37:14.105Z,99645.94
2022-10-29T03:40:15.698Z,99648.97
2022-10-29T03:43:18.073Z,99650.91
2022-10-29T03:46:19.826Z,99645.19
2022-10-29T03:49:21.449Z,99641.41
2022-10-29T03:52:23.156Z,99639.84
2022-10-29T03:55:24.869Z,99641.63
2022-10-29T03:58:27.266Z,99632.31
2022-10-29T04:01:30.009Z,99635.19
2022-10-29T04:04:31.921Z,99643.09
2022-10-29T04:07:33.714Z,99649.56
2022-10-29T04:10:35.396Z,99653.53
2022-10-29T04:13:37.130Z,99654.50
2022-10-29T04:16:38.920Z,99654.84
2022-10-29T04:19:40.796Z,99662.56
2022-10-29T04:29:25.921Z,99669.16
2022-10-29T04:32:28.097Z,99660.31
2022-10-29T04:35:29.874Z,99652.78
2022-10-29T04:38:31.581Z,99649.16
2022-10-29T04:41:33.295Z,99662.06
2022-10-29T04:44:35.033Z,99658.22
2022-10-29T04:47:36.663Z,99665.00
2022-10-29T04:50:39.122Z,99672.00
2022-10-29T04:53:40.916Z,99666.28
2022-10-29T04:56:42.616Z,99672.88
2022-10-29T04:59:44.265Z,99663.09
2022-10-29T05:02:53.315Z,99661.19
2022-10-29T05:05:55.428Z,99636.41
2022-10-29T05:08:57.137Z,99665.38
2022-10-29T05:11:58.865Z,99642.97
2022-10-29T05:15:00.629Z,99632.41
2022-10-29T05:18:03.124Z,99634.97
2022-10-29T05:21:05.106Z,99634.78
2022-10-29T05:24:07.166Z,99629.00
2022-10-29T05:27:09.105Z,99644.41
2022-10-29T05:30:11.148Z,99641.19
2022-10-29T05:33:16.460Z,99648.47
2022-10-29T05:36:18.058Z,99642.59
2022-10-29T05:39:19.868Z,99639.03
2022-10-29T05:42:21.557Z,99641.81
2022-10-29T05:45:23.349Z,99648.13
2022-10-29T05:48:24.983Z,99659.03
2022-10-29T05:51:26.561Z,99653.00
2022-10-29T05:54:28.253Z,99653.81
2022-10-29T05:57:30.008Z,99621.63
2022-10-29T06:00:34.900Z,99650.75
2022-10-29T06:03:39.441Z,99655.88
2022-10-29T06:06:41.216Z,99654.56
2022-10-29T06:09:42.886Z,99640.56
2022-10-29T06:12:44.496Z,99645.50
2022-10-29T06:15:51.390Z,99648.94
2022-10-29T06:18:53.001Z,99659.72
2022-10-29T06:21:57.862Z,99651.53
2022-10-29T06:25:02.303Z,99654.63
2022-10-29T06:28:06.697Z,99655.09
2022-10-29T06:31:08.351Z,99658.78
2022-10-29T06:34:14.859Z,99662.19
2022-10-29T06:37:16.721Z,99666.34
2022-10-29T06:40:18.562Z,99669.69
2022-10-29T06:43:20.292Z,99669.13
2022-10-29T06:46:22.009Z,99657.59
2022-10-29T06:49:24.015Z,99665.47
2022-10-29T06:52:25.611Z,99672.25
2022-10-29T06:55:28.235Z,99665.25
2022-10-29T06:58:29.854Z,99663.34
2022-10-29T07:01:33.312Z,99665.63
2022-10-29T07:04:35.098Z,99674.03
2022-10-29T07:07:36.933Z,99674.75
2022-10-29T07:10:39.140Z,99683.94
2022-10-29T07:13:40.752Z,99684.56
2022-10-29T07:16:42.418Z,99685.41
2022-10-29T07:19:44.012Z,99670.56
2022-10-29T07:22:47.226Z,99682.06
2022-10-29T07:25:52.667Z,99675.19
2022-10-29T07:28:57.855Z,99672.78
2022-10-29T07:31:59.519Z,99676.88
2022-10-29T07:35:01.140Z,99685.22
2022-10-29T07:38:07.235Z,99686.22
2022-10-29T07:41:12.402Z,99676.34
2022-10-29T07:44:14.064Z,99679.03
2022-10-29T07:47:15.693Z,99678.78
2022-10-29T07:50:17.402Z,99686.78
2022-10-29T07:53:19.237Z,99684.13
2022-10-29T07:56:20.926Z,99687.84
2022-10-29T07:59:22.736Z,99684.84
2022-10-29T08:02:24.565Z,99677.19
2022-10-29T08:05:27.331Z,99666.00
2022-10-29T08:08:29.073Z,99669.38
2022-10-29T08:11:34.063Z,99683.44
2022-10-29T08:14:35.834Z,99691.78
2022-10-29T08:17:37.512Z,99693.38
2022-10-29T08:20:39.484Z,99682.53
2022-10-29T08:23:41.242Z,99690.47
2022-10-29T08:26:42.824Z,99681.09
2022-10-29T08:29:44.441Z,99675.97
2022-10-29T08:32:46.728Z,99685.03
2022-10-29T08:35:48.815Z,99678.69
2022-10-29T08:38:50.545Z,99679.44
2022-10-29T08:42:34.146Z,99690.16
2022-10-29T08:45:51.031Z,99682.41
2022-10-29T08:48:57.655Z,99680.75
2022-10-29T08:52:10.670Z,99682.78
2022-10-29T08:55:35.415Z,99685.25
2022-10-29T08:59:12.658Z,99688.81
2022-10-29T09:02:18.313Z,99704.25
2022-10-29T09:05:25.163Z,99706.31
2022-10-29T09:08:29.571Z,99701.06
2022-10-29T09:12:02.342Z,99705.97
2022-10-29T09:15:10.288Z,99698.91
2022-10-29T09:18:40.694Z,99707.81
2022-10-29T09:22:07.276Z,99704.97
2022-10-29T09:25:42.414Z,99711.88
2022-10-29T09:29:14.478Z,99717.78
2022-10-29T09:32:23.381Z,99722.38
2022-10-29T09:35:34.037Z,99714.00
2022-10-29T09:38:42.726Z,99708.75
2022-10-29T09:41:44.890Z,99703.22
2022-10-29T09:44:56.144Z,99700.56
2022-10-29T09:48:18.377Z,99697.13
2022-10-29T09:51:49.510Z,99692.41
2022-10-29T09:54:53.237Z,99683.75
2022-10-29T09:57:57.275Z,99691.72
2022-10-29T10:00:59.119Z,99682.53
2022-10-29T10:04:12.359Z,99687.47
2022-10-29T10:07:19.696Z,99684.75
2022-10-29T10:10:23.261Z,99685.94
2022-10-29T10:13:31.273Z,99681.69
2022-10-29T10:16:33.684Z,99682.34
2022-10-29T10:19:44.383Z,99670.31
2022-10-29T10:22:47.451Z,99673.53
2022-10-29T10:25:49.981Z,99665.88
2022-10-29T10:29:18.321Z,99669.66
2022-10-29T10:32:19.986Z,99669.69
2022-10-29T10:35:31.078Z,99671.56
2022-10-29T10:38:42.248Z,99665.47
2022-10-29T10:41:44.149Z,99655.34
2022-10-29T10:44:56.590Z,99651.88
2022-10-29T10:47:59.536Z,99641.75
2022-10-29T10:51:43.741Z,99634.09
2022-10-29T10:55:07.896Z,99630.19
2022-10-29T10:58:28.470Z,99629.50
2022-10-29T11:01:37.345Z,99620.19
2022-10-29T11:04:41.879Z,99610.88
2022-10-29T11:07:50.985Z,99607.75
2022-10-29T11:10:56.897Z,99601.00
2022-10-29T11:14:00.933Z,99606.91
2022-10-29T11:17:08.414Z,99590.78
2022-10-29T11:20:24.440Z,99586.91
2022-10-29T11:23:46.330Z,99582.22
2022-10-29T11:26:59.767Z,99571.16
2022-10-29T11:30:16.673Z,99570.78
2022-10-29T11:33:41.704Z,99564.09
2022-10-29T11:36:51.752Z,99568.06
2022-10-29T11:40:03.516Z,99571.19
2022-10-29T11:43:11.535Z,99567.63
2022-10-29T11:46:28.483Z,99573.84
2022-10-29T11:49:43.039Z,99558.97
2022-10-29T11:52:48.614Z,99563.69
2022-10-29T11:55:53.157Z,99564.06
2022-10-29T11:59:10.804Z,99559.34
2022-10-29T12:02:31.254Z,99558.53
2022-10-29T12:05:46.001Z,99555.31
2022-10-29T12:08:53.661Z,99554.53
2022-10-29T12:12:19.658Z,99552.91
2022-10-29T12:15:21.377Z,99541.84
2022-10-29T12:18:28.913Z,99542.16
2022-10-29T12:21:42.773Z,99545.56
2022-10-29T12:25:02.143Z,99530.09
2022-10-29T12:28:33.276Z,99545.06
2022-10-29T12:31:53.511Z,99534.94
2022-10-29T12:35:07.417Z,99533.63
2022-10-29T12:38:30.323Z,99536.41
2022-10-29T12:41:38.421Z,99536.47
2022-10-29T12:45:05.263Z,99528.25
2022-10-29T12:48:27.138Z,99523.50
2022-10-29T12:51:44.126Z,99529.41
2022-10-29T12:54:47.656Z,99514.47
2022-10-29T12:57:49.385Z,99522.34
2022-10-29T13:00:51.026Z,99503.50
2022-10-29T13:03:55.783Z,99508.25
2022-10-29T13:07:06.171Z,99514.91
2022-10-29T13:10:28.699Z,99505.91
2022-10-29T13:13:50.954Z,99486.22
2022-10-29T13:16:53.914Z,99497.25
2022-10-29T13:19:57.650Z,99495.28
2022-10-29T13:23:03.868Z,99490.16
2022-10-29T13:26:08.928Z,99482.66
2022-10-29T13:29:10.621Z,99494.84
2022-10-29T13:32:31.795Z,99497.19
2022-10-29T13:35:36.398Z,99485.00
2022-10-29T13:39:06.494Z,99479.56
2022-10-29T13:42:13.137Z,99474.81
2022-10-29T13:45:20.492Z,99463.41
2022-10-29T13:48:30.673Z,99475.97
2022-10-29T13:51:40.776Z,99446.81
2022-10-29T13:54:42.389Z,99465.13
2022-10-29T13:58:03.978Z,99455.16
2022-10-29T14:01:10.927Z,99453.50
2022-10-29T14:04:31.795Z,99446.44
2022-10-29T14:08:11.918Z,99450.00
2022-10-29T14:11:27.629Z,99453.91
2022-10-29T14:14:49.547Z,99451.03
2022-10-29T14:17:54.045Z,99448.38
2022-10-29T14:20:56.988Z,99442.63
2022-10-29T14:24:07.703Z,99449.00
2022-10-29T14:27:15.217Z,99443.19
2022-10-29T14:30:20.321Z,99445.56
2022-10-29T14:33:27.721Z,99451.84
2022-10-29T14:36:43.984Z,99449.13
2022-10-29T14:39:58.497Z,99439.31
2022-10-29T14:43:01.684Z,99440.91
2022-10-29T14:46:34.292Z,99441.31
2022-10-29T14:49:44.913Z,99432.72
2022-10-29T14:52:53.738Z,99435.91
2022-10-29T14:55:56.651Z,99433.91
2022-10-29T14:58:58.847Z,99439.41
2022-10-29T15:02:32.116Z,99431.94
2022-10-29T15:05:29.158Z,99432.72
2022-10-29T15:08:34.304Z,99425.66
2022-10-29T15:11:40.417Z,99439.75
2022-10-29T15:14:53.560Z,99433.06
2022-10-29T15:18:06.196Z,99435.34
2022-10-29T15:21:08.313Z,99418.41
2022-10-29T15:24:20.738Z,99428.19
2022-10-29T15:27:24.399Z,99428.88
2022-10-29T15:30:35.378Z,99430.38
2022-10-29T15:33:37.323Z,99427.59
2022-10-29T15:36:50.572Z,99422.41
2022-10-29T15:40:01.949Z,99421.94
2022-10-29T15:43:27.807Z,99422.63
2022-10-29T15:46:47.890Z,99424.19
2022-10-29T15:49:49.619Z,99419.00
2022-10-29T15:53:15.041Z,99428.78
2022-10-29T15:56:17.087Z,99425.06
2022-10-29T15:59:24.829Z,99415.56
2022-10-29T16:02:26.651Z,99425.28
2022-10-29T16:05:28.522Z,99421.25
2022-10-29T16:08:44.873Z,99424.28
2022-10-29T16:11:46.848Z,99423.78
2022-10-29T16:14:48.611Z,99425.13
2022-10-29T16:17:51.437Z,99430.19
2022-10-29T16:21:00.958Z,99435.81
2022-10-29T16:24:02.649Z,99426.03
2022-10-29T16:27:12.970Z,99416.13
2022-10-29T16:30:14.883Z,99410.16
2022-10-29T16:33:18.130Z,99421.38
2022-10-29T16:36:20.117Z,99425.22
2022-10-29T16:39:21.826Z,99422.78
2022-10-29T16:42:35.382Z,99432.53
2022-10-29T16:45:37.450Z,99430.84
2022-10-29T16:48:39.473Z,99435.47
2022-10-29T16:51:41.161Z,99437.75
2022-10-29T16:54:42.886Z,99436.44
2022-10-29T16:57:44.461Z,99425.91
2022-10-29T17:00:46.695Z,99414.94
2022-10-29T17:03:52.249Z,99396.63
2022-10-29T17:06:53.985Z,99412.94
2022-10-29T17:09:55.679Z,99426.19
2022-10-29T17:12:58.807Z,99422.34
2022-10-29T17:16:00.723Z,99410.94
2022-10-29T17:19:02.427Z,99415.25
2022-10-29T17:22:05.255Z,99420.66
2022-10-29T17:25:07.331Z,99417.06
2022-10-29T17:28:08.960Z,99423.59
2022-10-29T17:31:14.007Z,99434.19
2022-10-29T17:34:15.712Z,99418.13
2022-10-29T17:37:17.399Z,99436.13
2022-10-29T17:40:19.130Z,99435.75
2022-10-29T17:43:20.785Z,99449.13
2022-10-29T17:46:22.576Z,99447.03
2022-10-29T17:49:25.810Z,99436.38
2022-10-29T17:52:27.451Z,99443.31
2022-10-29T17:55:29.436Z,99443.75
2022-10-29T17:58:31.205Z,99428.63
2022-10-29T18:01:33.187Z,99413.59
2022-10-29T18:04:34.880Z,99448.31
2022-10-29T18:07:36.556Z,99454.16
2022-10-29T18:10:38.477Z,99452.16
2022-10-29T18:13:42.116Z,99457.63
2022-10-29T18:16:44.090Z,99462.25
2022-10-29T18:19:45.804Z,99466.50
2022-10-29T18:22:51.811Z,99464.53
2022-10-29T18:26:22.250Z,99459.22
2022-10-29T18:29:24.068Z,99453.84
2022-10-29T18:32:25.756Z,99459.97
2022-10-29T18:35:27.855Z,99464.25
2022-10-29T18:38:30.864Z,99471.03
2022-10-29T18:41:33.518Z,99466.19
2022-10-29T18:44:35.594Z,99454.97
2022-10-29T18:47:37.196Z,99466.94
2022-10-29T18:50:38.865Z,99460.38
2022-10-29T18:53:40.714Z,99456.25
2022-10-29T18:56:42.601Z,99456.00
2022-10-29T18:59:44.942Z,99456.59
2022-10-29T19:02:46.849Z,99461.09
2022-10-29T19:05:49.134Z,99460.53
2022-10-29T19:08:51.218Z,99468.94
2022-10-29T19:11:55.419Z,99455.34
2022-10-29T19:15:00.215Z,99456.09
2022-10-29T19:18:02.331Z,99456.06
2022-10-29T19:21:05.294Z,99455.47
2022-10-29T19:24:08.075Z,99455.03
2022-10-29T19:27:09.749Z,99446.75
2022-10-29T19:30:11.880Z,99449.78
2022-10-29T19:33:13.629Z,99450.44
2022-10-29T19:36:15.769Z,99435.44
2022-10-29T19:39:17.490Z,99447.75
2022-10-29T19:42:19.177Z,99445.47
2022-10-29T19:45:23.855Z,99455.19
2022-10-29T19:48:26.234Z,99459.16
2022-10-29T19:51:27.956Z,99454.78
2022-10-29T19:54:29.551Z,99454.06
2022-10-29T19:57:31.348Z,99457.97
2022-10-29T20:00:33.120Z,99451.50
2022-10-29T20:03:36.209Z,99457.28
2022-10-29T20:06:37.860Z,99458.47
2022-10-29T20:09:39.641Z,99447.13
2022-10-29T20:12:41.312Z,99453.91
2022-10-29T20:15:43.027Z,99455.41
2022-10-29T20:18:44.983Z,99455.72
2022-10-29T20:21:46.593Z,99468.56
2022-10-29T20:24:48.316Z,99459.41
2022-10-29T20:27:49.917Z,99462.00
2022-10-29T20:31:09.097Z,99458.94
2022-10-29T20:34:10.803Z,99466.59
2022-10-29T20:37:12.350Z,99463.53
2022-10-29T20:40:14.394Z,99469.59
2022-10-29T20:43:16.067Z,99452.66
2022-10-29T20:46:17.681Z,99457.25
2022-10-29T20:49:19.319Z,99449.94
2022-10-29T20:52:20.972Z,99452.78
2022-10-29T20:55:22.630Z,99455.31
2022-10-29T20:58:24.241Z,99460.91
2022-10-29T21:01:26.184Z,99456.22
2022-10-29T21:04:27.968Z,99459.25
2022-10-29T21:07:29.563Z,99452.88
2022-10-29T21:10:31.359Z,99449.22
2022-10-29T21:13:33.427Z,99456.50
2022-10-29T21:16:35.219Z,99458.25
2022-10-29T21:19:36.902Z,99454.38
2022-10-29T21:22:38.605Z,99459.41
2022-10-29T21:25:40.214Z,99446.53
2022-10-29T21:28:42.188Z,99448.03
2022-10-29T21:31:43.840Z,99455.94
2022-10-29T21:34:45.466Z,99461.81
2022-10-29T21:37:47.159Z,99466.16
2022-10-29T21:40:49.269Z,99465.69
2022-10-29T21:43:50.965Z,99471.31
2022-10-29T21:46:52.660Z,99473.84
2022-10-29T21:49:54.409Z,99464.88
2022-10-29T21:52:57.134Z,99472.06
2022-10-29T21:56:01.348Z,99482.78
2022-10-29T21:59:03.163Z,99476.75
2022-10-29T22:02:04.994Z,99482.03
2022-10-29T22:05:07.361Z,99478.75
2022-10-29T22:08:09.300Z,99475.38
2022-10-29T22:11:12.328Z,99479.41
2022-10-29T22:14:14.037Z,99464.66
2022-10-29T22:17:15.848Z,99472.03
2022-10-29T22:20:17.590Z,99458.06
2022-10-29T22:23:19.244Z,99459.81
2022-10-29T22:26:23.741Z,99450.00
2022-10-29T22:29:25.421Z,99452.13
2022-10-29T22:32:27.113Z,99451.00
2022-10-29T22:35:28.883Z,99452.47
2022-10-29T22:38:30.531Z,99454.94
2022-10-29T22:41:32.289Z,99451.53
2022-10-29T22:44:34.007Z,99445.47
2022-10-29T22:47:35.658Z,99447.69
2022-10-29T22:50:37.538Z,99436.69
2022-10-29T22:53:39.148Z,99437.06
2022-10-29T22:56:40.885Z,99436.09
2022-10-29T22:59:42.677Z,99419.44
2022-10-29T23:02:44.400Z,99401.06
2022-10-29T23:05:56.372Z,99417.00
2022-10-29T23:08:58.590Z,99421.88
2022-10-29T23:12:00.184Z,99427.28
2022-10-29T23:15:01.802Z,99432.84
2022-10-29T23:18:03.561Z,99439.47
2022-10-29T23:21:06.664Z,99426.09
2022-10-29T23:24:08.886Z,99411.97
2022-10-29T23:27:10.438Z,99410.75
2022-10-29T23:30:12.406Z,99401.06
2022-10-29T23:33:14.014Z,99388.75
2022-10-29T23:36:16.941Z,99394.97
2022-10-29T23:39:18.577Z,99408.53
2022-10-29T23:42:20.345Z,99424.31
2022-10-29T23:45:22.047Z,99447.97
2022-10-29T23:48:24.407Z,99450.25
2022-10-29T23:51:26.265Z,99454.13
2022-10-29T23:54:27.950Z,99455.63
2022-10-29T23:57:29.688Z,99448.66
